URKAI UHMM-UHPP
Flight info
| Callsign | URKAI |
|---|---|
| Flight time | N/A |
| Altitude | 27000 |
| Route | INDEM5C INDEM B927 UHR W310 NILUK W214 KULOD KULOD5N |
| Aircraft | TBM9/L-SDFGY/C |
Departure
| Time | 2026-04-27 03:40 |
|---|---|
| Airport | Sokol Airport (UHMM) |
Arrival
| Time | N/A |
|---|---|
| Airport | Yelizovo Airport (UHPP) |
| Time | Latitude | Longitude | Altitude | Speed | Heading |
|---|---|---|---|---|---|
| 2026-04-27 03:25 | 59.91286 | 150.72838 | 567 ft | 0 kts | 3° |
| 2026-04-27 03:33 | 59.91287 | 150.72838 | 567 ft | 1 kts | 3° |
| 2026-04-27 03:33 | 59.91317 | 150.72849 | 568 ft | 8 kts | 49° |
| 2026-04-27 03:34 | 59.91318 | 150.72985 | 568 ft | 12 kts | 98° |
| 2026-04-27 03:34 | 59.91299 | 150.73153 | 571 ft | 13 kts | 125° |
| 2026-04-27 03:34 | 59.91250 | 150.73280 | 572 ft | 12 kts | 144° |
| 2026-04-27 03:34 | 59.91261 | 150.73418 | 570 ft | 12 kts | 97° |
| 2026-04-27 03:35 | 59.91274 | 150.73447 | 570 ft | 4 kts | 287° |
| 2026-04-27 03:35 | 59.91251 | 150.73342 | 571 ft | 12 kts | 246° |
| 2026-04-27 03:35 | 59.91198 | 150.73199 | 569 ft | 5 kts | 231° |
| 2026-04-27 03:35 | 59.91197 | 150.73198 | 569 ft | 0 kts | 229° |
| 2026-04-27 03:36 | 59.91172 | 150.73129 | 569 ft | 16 kts | 234° |
| 2026-04-27 03:36 | 59.91074 | 150.73035 | 571 ft | 20 kts | 98° |
| 2026-04-27 03:36 | 59.91072 | 150.73328 | 570 ft | 22 kts | 81° |
| 2026-04-27 03:37 | 59.91062 | 150.73627 | 570 ft | 22 kts | 97° |
| 2026-04-27 03:37 | 59.91046 | 150.73933 | 570 ft | 22 kts | 94° |
| 2026-04-27 03:37 | 59.91039 | 150.74225 | 572 ft | 21 kts | 94° |
| 2026-04-27 03:37 | 59.91031 | 150.74502 | 576 ft | 19 kts | 94° |
| 2026-04-27 03:38 | 59.91024 | 150.74762 | 578 ft | 19 kts | 93° |
| 2026-04-27 03:38 | 59.91013 | 150.75017 | 579 ft | 18 kts | 113° |
| 2026-04-27 03:38 | 59.91021 | 150.75008 | 579 ft | 13 kts | 249° |
| 2026-04-27 03:38 | 59.91018 | 150.74925 | 579 ft | 0 kts | 271° |
| 2026-04-27 03:39 | 59.91019 | 150.74892 | 579 ft | 16 kts | 272° |
| 2026-04-27 03:39 | 59.91035 | 150.74267 | 573 ft | 74 kts | 272° |
| 2026-04-27 03:40 | 59.91048 | 150.72967 | 703 ft | 106 kts | 271° |
| 2026-04-27 03:40 | 59.91071 | 150.71408 | 1040 ft | 119 kts | 276° |
| 2026-04-27 03:40 | 59.91164 | 150.69646 | 1410 ft | 128 kts | 280° |
| 2026-04-27 03:40 | 59.91264 | 150.67883 | 2008 ft | 130 kts | 280° |
| 2026-04-27 03:41 | 59.91332 | 150.66024 | 2540 ft | 138 kts | 272° |
| 2026-04-27 03:41 | 59.91355 | 150.64119 | 3101 ft | 139 kts | 274° |
| 2026-04-27 03:41 | 59.91396 | 150.61985 | 3211 ft | 169 kts | 277° |
| 2026-04-27 03:41 | 59.91952 | 150.59821 | 3221 ft | 189 kts | 320° |
| 2026-04-27 03:42 | 59.93189 | 150.58907 | 3237 ft | 204 kts | 1° |
| 2026-04-27 03:42 | 59.94536 | 150.59842 | 3232 ft | 211 kts | 39° |
| 2026-04-27 03:42 | 59.95335 | 150.62279 | 3221 ft | 215 kts | 75° |
| 2026-04-27 03:42 | 59.95424 | 150.65248 | 3210 ft | 203 kts | 91° |
| 2026-04-27 03:43 | 59.95267 | 150.67776 | 3158 ft | 172 kts | 103° |
| 2026-04-27 03:43 | 59.94929 | 150.69960 | 3167 ft | 157 kts | 105° |
| 2026-04-27 03:43 | 59.94677 | 150.72022 | 3183 ft | 150 kts | 102° |
| 2026-04-27 03:43 | 59.94446 | 150.74066 | 3184 ft | 152 kts | 102° |
| 2026-04-27 03:44 | 59.94207 | 150.76116 | 3183 ft | 152 kts | 102° |
| 2026-04-27 03:44 | 59.93862 | 150.78059 | 3197 ft | 152 kts | 128° |
| 2026-04-27 03:44 | 59.93071 | 150.79499 | 3183 ft | 156 kts | 134° |
| 2026-04-27 03:44 | 59.92338 | 150.81115 | 3200 ft | 150 kts | 130° |
| 2026-04-27 03:45 | 59.91704 | 150.82544 | 3611 ft | 129 kts | 131° |
| 2026-04-27 03:45 | 59.91143 | 150.83773 | 3981 ft | 112 kts | 130° |
| 2026-04-27 03:45 | 59.90632 | 150.84931 | 4372 ft | 113 kts | 130° |
| 2026-04-27 03:45 | 59.90060 | 150.86052 | 4781 ft | 120 kts | 144° |
| 2026-04-27 03:46 | 59.89294 | 150.86939 | 5209 ft | 135 kts | 147° |
| 2026-04-27 03:46 | 59.88449 | 150.87957 | 5643 ft | 148 kts | 148° |
| 2026-04-27 03:46 | 59.87534 | 150.89056 | 6079 ft | 158 kts | 147° |
| 2026-04-27 03:46 | 59.86533 | 150.90120 | 6520 ft | 169 kts | 154° |
| 2026-04-27 03:47 | 59.85443 | 150.91080 | 7015 ft | 172 kts | 154° |
| 2026-04-27 03:47 | 59.84358 | 150.92097 | 7544 ft | 173 kts | 146° |
| 2026-04-27 03:47 | 59.83477 | 150.93712 | 8051 ft | 173 kts | 131° |
| 2026-04-27 03:47 | 59.82661 | 150.95460 | 8563 ft | 175 kts | 131° |
| 2026-04-27 03:48 | 59.81826 | 150.97240 | 9084 ft | 177 kts | 131° |
| 2026-04-27 03:48 | 59.80975 | 150.99030 | 9668 ft | 179 kts | 131° |
| 2026-04-27 03:48 | 59.80117 | 151.00857 | 10218 ft | 181 kts | 131° |
| 2026-04-27 03:48 | 59.79256 | 151.02690 | 10733 ft | 183 kts | 131° |
| 2026-04-27 03:49 | 59.78383 | 151.04547 | 11274 ft | 184 kts | 131° |
| 2026-04-27 03:49 | 59.77503 | 151.06421 | 11767 ft | 187 kts | 131° |
| 2026-04-27 03:49 | 59.76911 | 151.07676 | 12110 ft | 188 kts | 131° |
| 2026-04-27 03:49 | 59.75769 | 151.10283 | 12803 ft | 190 kts | 124° |
| 2026-04-27 03:50 | 59.75013 | 151.12448 | 13347 ft | 191 kts | 123° |
| 2026-04-27 03:50 | 59.74258 | 151.14638 | 13874 ft | 193 kts | 122° |
| 2026-04-27 03:50 | 59.73499 | 151.16855 | 14354 ft | 195 kts | 122° |
| 2026-04-27 03:50 | 59.72991 | 151.18335 | 14686 ft | 195 kts | 122° |
| 2026-04-27 03:51 | 59.72189 | 151.20516 | 15177 ft | 197 kts | 128° |
| 2026-04-27 03:51 | 59.71266 | 151.22540 | 15678 ft | 198 kts | 130° |
| 2026-04-27 03:51 | 59.70341 | 151.24574 | 16176 ft | 199 kts | 129° |
| 2026-04-27 03:51 | 59.69428 | 151.26651 | 16685 ft | 200 kts | 129° |
| 2026-04-27 03:52 | 59.68509 | 151.28739 | 17196 ft | 201 kts | 129° |
| 2026-04-27 03:52 | 59.67595 | 151.30803 | 17699 ft | 203 kts | 129° |
| 2026-04-27 03:52 | 59.66664 | 151.32907 | 18203 ft | 204 kts | 129° |
| 2026-04-27 03:52 | 59.65727 | 151.35029 | 18663 ft | 205 kts | 129° |
| 2026-04-27 03:53 | 59.64787 | 151.37151 | 19108 ft | 206 kts | 129° |
| 2026-04-27 03:53 | 59.63840 | 151.39280 | 19562 ft | 206 kts | 129° |
| 2026-04-27 03:53 | 59.62890 | 151.41426 | 20008 ft | 207 kts | 129° |
| 2026-04-27 03:53 | 59.61935 | 151.43574 | 20458 ft | 208 kts | 129° |
| 2026-04-27 03:54 | 59.60972 | 151.45736 | 20912 ft | 209 kts | 129° |
| 2026-04-27 03:54 | 59.60018 | 151.47877 | 21372 ft | 210 kts | 129° |
| 2026-04-27 03:54 | 59.59045 | 151.50060 | 21835 ft | 211 kts | 129° |
| 2026-04-27 03:54 | 59.58071 | 151.52245 | 22313 ft | 212 kts | 129° |
| 2026-04-27 03:55 | 59.57090 | 151.54439 | 22779 ft | 213 kts | 129° |
| 2026-04-27 03:55 | 59.56105 | 151.56641 | 23241 ft | 215 kts | 129° |
| 2026-04-27 03:55 | 59.55117 | 151.58856 | 23704 ft | 216 kts | 128° |
| 2026-04-27 03:55 | 59.54121 | 151.61085 | 24075 ft | 218 kts | 129° |
| 2026-04-27 03:56 | 59.53125 | 151.63301 | 24432 ft | 220 kts | 129° |
| 2026-04-27 03:56 | 59.52106 | 151.65567 | 24804 ft | 222 kts | 129° |
| 2026-04-27 03:56 | 59.51079 | 151.67857 | 25171 ft | 224 kts | 129° |
| 2026-04-27 03:56 | 59.50041 | 151.70169 | 25543 ft | 226 kts | 129° |
| 2026-04-27 03:57 | 59.49006 | 151.72513 | 25900 ft | 228 kts | 127° |
| 2026-04-27 03:57 | 59.47998 | 151.74893 | 26264 ft | 230 kts | 128° |
| 2026-04-27 03:57 | 59.46956 | 151.77313 | 26636 ft | 232 kts | 128° |
| 2026-04-27 03:57 | 59.45909 | 151.79749 | 27007 ft | 234 kts | 128° |
| 2026-04-27 03:58 | 59.44832 | 151.82264 | 27078 ft | 249 kts | 128° |
| 2026-04-27 03:58 | 59.43683 | 151.84938 | 27084 ft | 263 kts | 129° |
| 2026-04-27 03:58 | 59.42472 | 151.87748 | 27087 ft | 274 kts | 129° |
| 2026-04-27 03:58 | 59.41221 | 151.90654 | 27087 ft | 283 kts | 129° |
| 2026-04-27 03:59 | 59.39949 | 151.93608 | 27092 ft | 291 kts | 129° |
| 2026-04-27 03:59 | 59.38624 | 151.96683 | 27089 ft | 298 kts | 129° |
| 2026-04-27 03:59 | 59.37272 | 151.99809 | 27085 ft | 302 kts | 129° |
| 2026-04-27 03:59 | 59.35903 | 152.02974 | 27086 ft | 306 kts | 129° |
| 2026-04-27 04:00 | 59.34520 | 152.06170 | 27084 ft | 309 kts | 129° |
| 2026-04-27 04:00 | 59.33122 | 152.09396 | 27084 ft | 311 kts | 129° |
| 2026-04-27 04:00 | 59.31719 | 152.12630 | 27082 ft | 312 kts | 129° |
| 2026-04-27 04:00 | 59.30314 | 152.15861 | 27206 ft | 309 kts | 129° |
| 2026-04-27 04:01 | 59.28932 | 152.19044 | 27475 ft | 303 kts | 129° |
| 2026-04-27 04:01 | 59.27590 | 152.22126 | 27741 ft | 299 kts | 129° |
| 2026-04-27 04:01 | 59.26247 | 152.25206 | 28012 ft | 296 kts | 129° |
| 2026-04-27 04:01 | 59.24915 | 152.28252 | 28279 ft | 294 kts | 129° |
| 2026-04-27 04:02 | 59.23594 | 152.31276 | 28533 ft | 292 kts | 129° |
| 2026-04-27 04:02 | 59.22279 | 152.34279 | 28835 ft | 290 kts | 129° |
| 2026-04-27 04:02 | 59.20965 | 152.37273 | 29072 ft | 291 kts | 129° |
| 2026-04-27 04:02 | 59.19624 | 152.40325 | 29075 ft | 299 kts | 130° |
| 2026-04-27 04:03 | 59.18256 | 152.43428 | 29082 ft | 305 kts | 130° |
| 2026-04-27 04:03 | 59.15464 | 152.49761 | 29083 ft | 313 kts | 130° |
| 2026-04-27 04:04 | 59.12590 | 152.56266 | 29084 ft | 319 kts | 130° |
| 2026-04-27 04:04 | 59.09675 | 152.62832 | 29084 ft | 322 kts | 130° |
| 2026-04-27 04:05 | 59.06748 | 152.69423 | 29084 ft | 322 kts | 130° |
| 2026-04-27 04:05 | 59.03817 | 152.76002 | 29089 ft | 322 kts | 130° |
| 2026-04-27 04:06 | 59.00890 | 152.82545 | 29084 ft | 322 kts | 130° |
| 2026-04-27 04:06 | 58.97945 | 152.89124 | 29087 ft | 323 kts | 130° |
| 2026-04-27 04:07 | 58.93527 | 152.98937 | 29087 ft | 323 kts | 130° |
| 2026-04-27 04:07 | 58.90566 | 153.05498 | 29086 ft | 323 kts | 131° |
| 2026-04-27 04:08 | 58.87602 | 153.12043 | 29085 ft | 324 kts | 131° |
| 2026-04-27 04:08 | 58.84630 | 153.18591 | 29084 ft | 324 kts | 131° |
| 2026-04-27 04:09 | 58.81644 | 153.25149 | 29086 ft | 325 kts | 131° |
| 2026-04-27 04:09 | 58.78671 | 153.31663 | 29089 ft | 325 kts | 131° |
| 2026-04-27 04:10 | 58.75677 | 153.38199 | 29089 ft | 325 kts | 131° |
| 2026-04-27 04:10 | 58.72684 | 153.44717 | 29087 ft | 325 kts | 131° |
| 2026-04-27 04:11 | 58.69680 | 153.51242 | 29087 ft | 326 kts | 131° |
| 2026-04-27 04:11 | 58.66689 | 153.57719 | 29090 ft | 326 kts | 131° |
| 2026-04-27 04:12 | 58.63668 | 153.64241 | 29091 ft | 326 kts | 131° |
| 2026-04-27 04:12 | 58.60647 | 153.70748 | 29094 ft | 327 kts | 131° |
| 2026-04-27 04:13 | 58.57631 | 153.77223 | 29089 ft | 327 kts | 131° |
| 2026-04-27 04:13 | 58.54596 | 153.83725 | 29090 ft | 327 kts | 132° |
| 2026-04-27 04:14 | 58.51548 | 153.90232 | 29093 ft | 328 kts | 132° |
| 2026-04-27 04:14 | 58.48519 | 153.96681 | 29088 ft | 328 kts | 132° |
| 2026-04-27 04:15 | 58.45458 | 154.03180 | 29090 ft | 329 kts | 132° |
| 2026-04-27 04:15 | 58.42388 | 154.09681 | 29090 ft | 329 kts | 132° |
| 2026-04-27 04:16 | 58.39316 | 154.16167 | 29086 ft | 330 kts | 132° |
| 2026-04-27 04:16 | 58.36256 | 154.22609 | 29088 ft | 330 kts | 132° |
| 2026-04-27 04:17 | 58.33162 | 154.29106 | 29090 ft | 331 kts | 132° |
| 2026-04-27 04:17 | 58.30064 | 154.35592 | 29088 ft | 331 kts | 132° |